sensor_id;sensor_type;location;lat;lon;timestamp;P1;durP1;ratioP1;P2;durP2;ratioP2
25111;SDS011;13092;51.996;4.458;2022-12-07T00:00:33;25.50;;;23.63;;
25111;SDS011;13092;51.996;4.458;2022-12-07T00:03:01;24.33;;;22.43;;
25111;SDS011;13092;51.996;4.458;2022-12-07T00:05:44;16.17;;;14.97;;
25111;SDS011;13092;51.996;4.458;2022-12-07T00:08:19;16.00;;;14.80;;
25111;SDS011;13092;51.996;4.458;2022-12-07T00:10:53;21.70;;;20.20;;
25111;SDS011;13092;51.996;4.458;2022-12-07T00:13:24;20.87;;;19.37;;
25111;SDS011;13092;51.996;4.458;2022-12-07T00:15:59;20.47;;;19.17;;
25111;SDS011;13092;51.996;4.458;2022-12-07T00:18:33;21.40;;;19.83;;
25111;SDS011;13092;51.996;4.458;2022-12-07T00:21:05;22.57;;;21.07;;
25111;SDS011;13092;51.996;4.458;2022-12-07T00:23:38;23.17;;;21.57;;
25111;SDS011;13092;51.996;4.458;2022-12-07T00:26:09;25.10;;;23.33;;
25111;SDS011;13092;51.996;4.458;2022-12-07T00:28:40;26.20;;;24.27;;
25111;SDS011;13092;51.996;4.458;2022-12-07T00:31:16;25.57;;;23.87;;
25111;SDS011;13092;51.996;4.458;2022-12-07T00:33:52;26.80;;;25.10;;
25111;SDS011;13092;51.996;4.458;2022-12-07T00:36:46;26.83;;;25.13;;
25111;SDS011;13092;51.996;4.458;2022-12-07T00:39:20;27.00;;;25.30;;
25111;SDS011;13092;51.996;4.458;2022-12-07T00:41:50;28.00;;;26.00;;
25111;SDS011;13092;51.996;4.458;2022-12-07T00:44:33;27.57;;;25.60;;
25111;SDS011;13092;51.996;4.458;2022-12-07T00:47:10;26.97;;;25.27;;
25111;SDS011;13092;51.996;4.458;2022-12-07T00:49:51;28.07;;;25.80;;
25111;SDS011;13092;51.996;4.458;2022-12-07T00:52:32;27.03;;;25.23;;
25111;SDS011;13092;51.996;4.458;2022-12-07T00:55:14;28.03;;;26.23;;
25111;SDS011;13092;51.996;4.458;2022-12-07T00:57:47;28.63;;;26.83;;
25111;SDS011;13092;51.996;4.458;2022-12-07T01:00:23;28.57;;;26.77;;
25111;SDS011;13092;51.996;4.458;2022-12-07T01:03:15;29.13;;;27.23;;
25111;SDS011;13092;51.996;4.458;2022-12-07T01:05:55;30.27;;;28.17;;
25111;SDS011;13092;51.996;4.458;2022-12-07T01:08:36;30.07;;;28.17;;
25111;SDS011;13092;51.996;4.458;2022-12-07T01:11:14;29.83;;;27.90;;
25111;SDS011;13092;51.996;4.458;2022-12-07T01:13:55;30.30;;;28.20;;
25111;SDS011;13092;51.996;4.458;2022-12-07T01:16:28;31.90;;;29.50;;
25111;SDS011;13092;51.996;4.458;2022-12-07T01:19:01;30.97;;;28.87;;
25111;SDS011;13092;51.996;4.458;2022-12-07T01:21:33;30.80;;;28.63;;
25111;SDS011;13092;51.996;4.458;2022-12-07T01:24:08;30.30;;;28.30;;
25111;SDS011;13092;51.996;4.458;2022-12-07T01:26:57;31.63;;;29.17;;
25111;SDS011;13092;51.996;4.458;2022-12-07T01:29:27;30.27;;;28.27;;
25111;SDS011;13092;51.996;4.458;2022-12-07T01:32:03;30.87;;;28.77;;
25111;SDS011;13092;51.996;4.458;2022-12-07T01:34:37;30.73;;;28.70;;
25111;SDS011;13092;51.996;4.458;2022-12-07T01:37:34;30.90;;;28.90;;
25111;SDS011;13092;51.996;4.458;2022-12-07T01:40:20;30.40;;;28.37;;
25111;SDS011;13092;51.996;4.458;2022-12-07T01:42:50;30.80;;;28.57;;
25111;SDS011;13092;51.996;4.458;2022-12-07T01:45:37;30.40;;;28.37;;
25111;SDS011;13092;51.996;4.458;2022-12-07T01:48:08;30.07;;;28.03;;
25111;SDS011;13092;51.996;4.458;2022-12-07T01:50:49;31.40;;;29.13;;
25111;SDS011;13092;51.996;4.458;2022-12-07T01:55:54;30.87;;;28.63;;
25111;SDS011;13092;51.996;4.458;2022-12-07T01:58:24;30.70;;;28.47;;
25111;SDS011;13092;51.996;4.458;2022-12-07T02:00:53;29.90;;;27.77;;
25111;SDS011;13092;51.996;4.458;2022-12-07T02:03:24;30.57;;;28.23;;
25111;SDS011;13092;51.996;4.458;2022-12-07T02:05:57;31.10;;;28.80;;
25111;SDS011;13092;51.996;4.458;2022-12-07T02:08:27;30.60;;;28.27;;
25111;SDS011;13092;51.996;4.458;2022-12-07T02:10:57;30.67;;;28.40;;
25111;SDS011;13092;51.996;4.458;2022-12-07T02:13:26;30.40;;;28.17;;
25111;SDS011;13092;51.996;4.458;2022-12-07T02:16:04;29.83;;;27.83;;
25111;SDS011;13092;51.996;4.458;2022-12-07T02:18:50;29.87;;;27.50;;
25111;SDS011;13092;51.996;4.458;2022-12-07T02:21:27;29.73;;;27.73;;
25111;SDS011;13092;51.996;4.458;2022-12-07T02:24:13;29.40;;;27.43;;
25111;SDS011;13092;51.996;4.458;2022-12-07T02:26:55;29.90;;;27.90;;
25111;SDS011;13092;51.996;4.458;2022-12-07T02:29:49;30.27;;;28.23;;
25111;SDS011;13092;51.996;4.458;2022-12-07T02:32:25;30.63;;;28.53;;
25111;SDS011;13092;51.996;4.458;2022-12-07T02:35:02;30.70;;;28.50;;
25111;SDS011;13092;51.996;4.458;2022-12-07T02:37:35;29.43;;;27.33;;
25111;SDS011;13092;51.996;4.458;2022-12-07T02:40:08;30.80;;;28.23;;
25111;SDS011;13092;51.996;4.458;2022-12-07T02:42:41;29.73;;;27.70;;
25111;SDS011;13092;51.996;4.458;2022-12-07T02:45:15;30.67;;;28.30;;
25111;SDS011;13092;51.996;4.458;2022-12-07T02:47:46;29.57;;;27.27;;
25111;SDS011;13092;51.996;4.458;2022-12-07T02:50:21;30.20;;;28.17;;
25111;SDS011;13092;51.996;4.458;2022-12-07T02:52:50;31.03;;;28.83;;
25111;SDS011;13092;51.996;4.458;2022-12-07T02:55:19;29.70;;;27.70;;
25111;SDS011;13092;51.996;4.458;2022-12-07T02:58:05;29.67;;;27.60;;
25111;SDS011;13092;51.996;4.458;2022-12-07T03:00:55;29.40;;;27.37;;
25111;SDS011;13092;51.996;4.458;2022-12-07T03:03:33;29.80;;;27.83;;
25111;SDS011;13092;51.996;4.458;2022-12-07T03:06:09;30.23;;;28.13;;
25111;SDS011;13092;51.996;4.458;2022-12-07T03:08:47;29.37;;;26.83;;
25111;SDS011;13092;51.996;4.458;2022-12-07T03:11:24;26.37;;;24.67;;
25111;SDS011;13092;51.996;4.458;2022-12-07T03:13:59;27.70;;;25.90;;
25111;SDS011;13092;51.996;4.458;2022-12-07T03:16:33;28.30;;;26.30;;
25111;SDS011;13092;51.996;4.458;2022-12-07T03:19:06;27.23;;;25.30;;
25111;SDS011;13092;51.996;4.458;2022-12-07T03:21:38;29.07;;;26.77;;
25111;SDS011;13092;51.996;4.458;2022-12-07T03:24:09;28.50;;;26.33;;
25111;SDS011;13092;51.996;4.458;2022-12-07T03:26:44;29.63;;;27.53;;
25111;SDS011;13092;51.996;4.458;2022-12-07T03:29:24;27.47;;;25.53;;
25111;SDS011;13092;51.996;4.458;2022-12-07T03:32:12;25.00;;;23.30;;
25111;SDS011;13092;51.996;4.458;2022-12-07T03:34:48;27.83;;;25.97;;
25111;SDS011;13092;51.996;4.458;2022-12-07T03:37:22;26.63;;;24.60;;
25111;SDS011;13092;51.996;4.458;2022-12-07T03:40:02;25.13;;;23.33;;
25111;SDS011;13092;51.996;4.458;2022-12-07T03:42:35;25.33;;;23.73;;
25111;SDS011;13092;51.996;4.458;2022-12-07T03:45:03;25.93;;;23.93;;
25111;SDS011;13092;51.996;4.458;2022-12-07T03:47:37;25.10;;;23.50;;
25111;SDS011;13092;51.996;4.458;2022-12-07T03:50:14;24.93;;;23.23;;
25111;SDS011;13092;51.996;4.458;2022-12-07T03:52:51;25.40;;;23.67;;
25111;SDS011;13092;51.996;4.458;2022-12-07T03:55:22;26.40;;;24.50;;
25111;SDS011;13092;51.996;4.458;2022-12-07T03:57:56;25.77;;;23.97;;
25111;SDS011;13092;51.996;4.458;2022-12-07T04:00:28;25.30;;;23.23;;
25111;SDS011;13092;51.996;4.458;2022-12-07T04:03:02;25.80;;;24.10;;
25111;SDS011;13092;51.996;4.458;2022-12-07T04:05:31;26.77;;;24.83;;
25111;SDS011;13092;51.996;4.458;2022-12-07T04:08:00;27.23;;;25.33;;
25111;SDS011;13092;51.996;4.458;2022-12-07T04:10:29;27.37;;;25.67;;
25111;SDS011;13092;51.996;4.458;2022-12-07T04:12:58;28.30;;;26.33;;
25111;SDS011;13092;51.996;4.458;2022-12-07T04:15:26;28.83;;;26.80;;
25111;SDS011;13092;51.996;4.458;2022-12-07T04:17:57;28.73;;;27.00;;
25111;SDS011;13092;51.996;4.458;2022-12-07T04:20:28;29.00;;;26.90;;
25111;SDS011;13092;51.996;4.458;2022-12-07T04:22:57;31.17;;;28.97;;
25111;SDS011;13092;51.996;4.458;2022-12-07T04:25:25;31.37;;;29.37;;
25111;SDS011;13092;51.996;4.458;2022-12-07T04:27:54;31.27;;;29.33;;
25111;SDS011;13092;51.996;4.458;2022-12-07T04:30:23;30.43;;;28.60;;
25111;SDS011;13092;51.996;4.458;2022-12-07T04:32:52;30.60;;;28.60;;
25111;SDS011;13092;51.996;4.458;2022-12-07T04:35:23;30.47;;;28.47;;
25111;SDS011;13092;51.996;4.458;2022-12-07T04:37:53;31.03;;;28.93;;
25111;SDS011;13092;51.996;4.458;2022-12-07T04:40:25;31.43;;;28.83;;
25111;SDS011;13092;51.996;4.458;2022-12-07T04:42:57;31.37;;;29.37;;
25111;SDS011;13092;51.996;4.458;2022-12-07T04:45:25;32.23;;;30.13;;
25111;SDS011;13092;51.996;4.458;2022-12-07T04:47:53;32.23;;;29.93;;
25111;SDS011;13092;51.996;4.458;2022-12-07T04:50:26;30.87;;;28.87;;
25111;SDS011;13092;51.996;4.458;2022-12-07T04:52:56;31.33;;;29.23;;
25111;SDS011;13092;51.996;4.458;2022-12-07T04:55:25;31.47;;;29.27;;
25111;SDS011;13092;51.996;4.458;2022-12-07T04:57:56;31.43;;;29.47;;
25111;SDS011;13092;51.996;4.458;2022-12-07T05:00:24;30.07;;;28.27;;
25111;SDS011;13092;51.996;4.458;2022-12-07T05:02:55;32.03;;;29.93;;
25111;SDS011;13092;51.996;4.458;2022-12-07T05:05:33;30.30;;;28.27;;
25111;SDS011;13092;51.996;4.458;2022-12-07T05:08:03;31.73;;;29.60;;
25111;SDS011;13092;51.996;4.458;2022-12-07T05:10:33;33.43;;;30.73;;
25111;SDS011;13092;51.996;4.458;2022-12-07T05:13:04;32.03;;;29.93;;
25111;SDS011;13092;51.996;4.458;2022-12-07T05:15:34;32.13;;;29.97;;
25111;SDS011;13092;51.996;4.458;2022-12-07T05:18:08;31.77;;;29.77;;
25111;SDS011;13092;51.996;4.458;2022-12-07T05:20:36;31.47;;;29.20;;
25111;SDS011;13092;51.996;4.458;2022-12-07T05:23:09;31.13;;;28.80;;
25111;SDS011;13092;51.996;4.458;2022-12-07T05:25:38;31.90;;;29.90;;
25111;SDS011;13092;51.996;4.458;2022-12-07T05:28:07;31.87;;;29.73;;
25111;SDS011;13092;51.996;4.458;2022-12-07T05:30:36;31.80;;;29.63;;
25111;SDS011;13092;51.996;4.458;2022-12-07T05:33:05;31.73;;;29.60;;
25111;SDS011;13092;51.996;4.458;2022-12-07T05:35:34;32.03;;;29.93;;
25111;SDS011;13092;51.996;4.458;2022-12-07T05:38:04;32.60;;;30.20;;
25111;SDS011;13092;51.996;4.458;2022-12-07T05:40:34;31.17;;;29.07;;
25111;SDS011;13092;51.996;4.458;2022-12-07T05:43:03;30.67;;;28.57;;
25111;SDS011;13092;51.996;4.458;2022-12-07T05:45:32;29.70;;;27.90;;
25111;SDS011;13092;51.996;4.458;2022-12-07T05:48:00;30.83;;;28.73;;
25111;SDS011;13092;51.996;4.458;2022-12-07T05:50:32;30.40;;;28.37;;
25111;SDS011;13092;51.996;4.458;2022-12-07T05:53:00;29.90;;;27.90;;
25111;SDS011;13092;51.996;4.458;2022-12-07T05:55:28;29.67;;;27.57;;
25111;SDS011;13092;51.996;4.458;2022-12-07T05:57:58;29.23;;;27.03;;
25111;SDS011;13092;51.996;4.458;2022-12-07T06:00:44;29.40;;;27.50;;
25111;SDS011;13092;51.996;4.458;2022-12-07T06:03:16;29.13;;;27.33;;
25111;SDS011;13092;51.996;4.458;2022-12-07T06:05:45;29.23;;;27.27;;
25111;SDS011;13092;51.996;4.458;2022-12-07T06:08:13;29.47;;;27.37;;
25111;SDS011;13092;51.996;4.458;2022-12-07T06:10:42;29.07;;;27.27;;
25111;SDS011;13092;51.996;4.458;2022-12-07T06:13:12;27.77;;;25.97;;
25111;SDS011;13092;51.996;4.458;2022-12-07T06:15:39;28.30;;;26.23;;
25111;SDS011;13092;51.996;4.458;2022-12-07T06:18:08;29.73;;;27.57;;
25111;SDS011;13092;51.996;4.458;2022-12-07T06:20:37;28.57;;;26.57;;
25111;SDS011;13092;51.996;4.458;2022-12-07T06:23:05;28.07;;;26.17;;
25111;SDS011;13092;51.996;4.458;2022-12-07T06:25:34;28.30;;;26.40;;
25111;SDS011;13092;51.996;4.458;2022-12-07T06:28:02;28.57;;;26.63;;
25111;SDS011;13092;51.996;4.458;2022-12-07T06:30:32;28.47;;;26.53;;
25111;SDS011;13092;51.996;4.458;2022-12-07T06:33:02;28.90;;;26.70;;
25111;SDS011;13092;51.996;4.458;2022-12-07T06:35:31;28.63;;;26.57;;
25111;SDS011;13092;51.996;4.458;2022-12-07T06:38:00;28.47;;;26.67;;
25111;SDS011;13092;51.996;4.458;2022-12-07T06:40:28;28.87;;;26.97;;
25111;SDS011;13092;51.996;4.458;2022-12-07T06:42:59;28.37;;;26.43;;
25111;SDS011;13092;51.996;4.458;2022-12-07T06:45:27;29.37;;;27.17;;
25111;SDS011;13092;51.996;4.458;2022-12-07T06:47:57;29.17;;;27.10;;
25111;SDS011;13092;51.996;4.458;2022-12-07T06:50:26;30.13;;;28.07;;
25111;SDS011;13092;51.996;4.458;2022-12-07T06:52:54;29.60;;;27.20;;
25111;SDS011;13092;51.996;4.458;2022-12-07T06:55:23;27.37;;;25.27;;
25111;SDS011;13092;51.996;4.458;2022-12-07T06:58:02;28.10;;;26.10;;
25111;SDS011;13092;51.996;4.458;2022-12-07T07:00:31;29.13;;;26.97;;
25111;SDS011;13092;51.996;4.458;2022-12-07T07:03:02;29.13;;;26.90;;
25111;SDS011;13092;51.996;4.458;2022-12-07T07:05:30;29.33;;;27.10;;
25111;SDS011;13092;51.996;4.458;2022-12-07T07:07:59;28.40;;;26.07;;
25111;SDS011;13092;51.996;4.458;2022-12-07T07:10:47;28.40;;;26.23;;
25111;SDS011;13092;51.996;4.458;2022-12-07T07:13:15;26.97;;;24.77;;
25111;SDS011;13092;51.996;4.458;2022-12-07T07:15:44;26.93;;;25.17;;
25111;SDS011;13092;51.996;4.458;2022-12-07T07:18:13;28.40;;;26.03;;
25111;SDS011;13092;51.996;4.458;2022-12-07T07:20:41;27.80;;;25.90;;
25111;SDS011;13092;51.996;4.458;2022-12-07T07:23:09;27.67;;;25.70;;
25111;SDS011;13092;51.996;4.458;2022-12-07T07:25:37;28.53;;;26.40;;
25111;SDS011;13092;51.996;4.458;2022-12-07T07:28:06;28.27;;;26.23;;
25111;SDS011;13092;51.996;4.458;2022-12-07T07:30:36;28.43;;;26.17;;
25111;SDS011;13092;51.996;4.458;2022-12-07T07:33:05;28.10;;;26.10;;
25111;SDS011;13092;51.996;4.458;2022-12-07T07:35:35;25.27;;;23.67;;
25111;SDS011;13092;51.996;4.458;2022-12-07T07:38:05;23.57;;;21.60;;
25111;SDS011;13092;51.996;4.458;2022-12-07T07:40:34;23.83;;;21.93;;
25111;SDS011;13092;51.996;4.458;2022-12-07T07:43:03;25.07;;;23.07;;
25111;SDS011;13092;51.996;4.458;2022-12-07T07:45:31;25.97;;;24.07;;
25111;SDS011;13092;51.996;4.458;2022-12-07T07:47:59;23.00;;;21.50;;
25111;SDS011;13092;51.996;4.458;2022-12-07T07:50:28;25.17;;;23.27;;
25111;SDS011;13092;51.996;4.458;2022-12-07T07:52:58;23.57;;;21.67;;
25111;SDS011;13092;51.996;4.458;2022-12-07T07:55:26;24.27;;;22.73;;
25111;SDS011;13092;51.996;4.458;2022-12-07T07:57:58;25.87;;;23.97;;
25111;SDS011;13092;51.996;4.458;2022-12-07T08:00:26;24.30;;;22.70;;
25111;SDS011;13092;51.996;4.458;2022-12-07T08:02:54;26.27;;;24.37;;
25111;SDS011;13092;51.996;4.458;2022-12-07T08:05:23;25.83;;;23.60;;
25111;SDS011;13092;51.996;4.458;2022-12-07T08:07:51;27.17;;;25.20;;
25111;SDS011;13092;51.996;4.458;2022-12-07T08:10:21;28.37;;;26.23;;
25111;SDS011;13092;51.996;4.458;2022-12-07T08:12:49;27.97;;;25.87;;
25111;SDS011;13092;51.996;4.458;2022-12-07T08:15:36;27.77;;;25.87;;
25111;SDS011;13092;51.996;4.458;2022-12-07T08:18:05;28.03;;;26.07;;
25111;SDS011;13092;51.996;4.458;2022-12-07T08:20:34;28.93;;;26.67;;
25111;SDS011;13092;51.996;4.458;2022-12-07T08:23:04;29.00;;;26.63;;
25111;SDS011;13092;51.996;4.458;2022-12-07T08:25:34;28.27;;;26.20;;
25111;SDS011;13092;51.996;4.458;2022-12-07T08:28:03;28.03;;;26.23;;
25111;SDS011;13092;51.996;4.458;2022-12-07T08:30:31;29.30;;;27.00;;
25111;SDS011;13092;51.996;4.458;2022-12-07T08:33:00;29.37;;;27.30;;
25111;SDS011;13092;51.996;4.458;2022-12-07T08:35:28;29.47;;;27.47;;
25111;SDS011;13092;51.996;4.458;2022-12-07T08:37:56;29.60;;;27.37;;
25111;SDS011;13092;51.996;4.458;2022-12-07T08:40:24;29.90;;;27.80;;
25111;SDS011;13092;51.996;4.458;2022-12-07T08:42:54;29.57;;;27.43;;
25111;SDS011;13092;51.996;4.458;2022-12-07T08:45:23;29.90;;;27.80;;
25111;SDS011;13092;51.996;4.458;2022-12-07T08:47:54;29.73;;;27.60;;
25111;SDS011;13092;51.996;4.458;2022-12-07T08:50:25;30.90;;;28.63;;
25111;SDS011;13092;51.996;4.458;2022-12-07T08:52:55;30.60;;;28.30;;
25111;SDS011;13092;51.996;4.458;2022-12-07T08:55:25;31.27;;;28.87;;
25111;SDS011;13092;51.996;4.458;2022-12-07T08:57:56;32.23;;;29.80;;
25111;SDS011;13092;51.996;4.458;2022-12-07T09:00:25;32.07;;;29.30;;
25111;SDS011;13092;51.996;4.458;2022-12-07T09:02:53;31.10;;;28.77;;
25111;SDS011;13092;51.996;4.458;2022-12-07T09:05:24;31.10;;;28.77;;
25111;SDS011;13092;51.996;4.458;2022-12-07T09:08:02;30.17;;;28.03;;
25111;SDS011;13092;51.996;4.458;2022-12-07T09:10:31;30.30;;;27.90;;
25111;SDS011;13092;51.996;4.458;2022-12-07T09:13:01;27.93;;;25.93;;
25111;SDS011;13092;51.996;4.458;2022-12-07T09:15:29;29.03;;;26.70;;
25111;SDS011;13092;51.996;4.458;2022-12-07T09:17:58;28.47;;;26.37;;
25111;SDS011;13092;51.996;4.458;2022-12-07T09:20:26;28.33;;;26.33;;
25111;SDS011;13092;51.996;4.458;2022-12-07T09:22:55;29.13;;;27.13;;
25111;SDS011;13092;51.996;4.458;2022-12-07T09:25:23;30.67;;;28.37;;
25111;SDS011;13092;51.996;4.458;2022-12-07T09:27:55;28.97;;;26.90;;
25111;SDS011;13092;51.996;4.458;2022-12-07T09:30:25;29.37;;;27.37;;
25111;SDS011;13092;51.996;4.458;2022-12-07T09:32:56;30.30;;;27.90;;
25111;SDS011;13092;51.996;4.458;2022-12-07T09:35:24;32.50;;;29.80;;
25111;SDS011;13092;51.996;4.458;2022-12-07T09:37:53;30.03;;;27.97;;
25111;SDS011;13092;51.996;4.458;2022-12-07T09:40:23;31.10;;;28.67;;
25111;SDS011;13092;51.996;4.458;2022-12-07T09:42:52;30.63;;;28.17;;
25111;SDS011;13092;51.996;4.458;2022-12-07T09:45:24;30.30;;;28.00;;
25111;SDS011;13092;51.996;4.458;2022-12-07T09:47:56;28.93;;;26.90;;
25111;SDS011;13092;51.996;4.458;2022-12-07T09:50:26;30.13;;;27.93;;
25111;SDS011;13092;51.996;4.458;2022-12-07T09:53:02;30.00;;;28.00;;
25111;SDS011;13092;51.996;4.458;2022-12-07T09:55:35;30.90;;;28.63;;
25111;SDS011;13092;51.996;4.458;2022-12-07T09:58:05;31.57;;;29.17;;
25111;SDS011;13092;51.996;4.458;2022-12-07T10:00:35;31.17;;;29.03;;
25111;SDS011;13092;51.996;4.458;2022-12-07T10:03:03;30.37;;;28.07;;
25111;SDS011;13092;51.996;4.458;2022-12-07T10:05:33;28.67;;;26.83;;
25111;SDS011;13092;51.996;4.458;2022-12-07T10:08:04;30.07;;;27.97;;
25111;SDS011;13092;51.996;4.458;2022-12-07T10:10:33;27.50;;;25.73;;
25111;SDS011;13092;51.996;4.458;2022-12-07T10:13:06;28.43;;;26.47;;
25111;SDS011;13092;51.996;4.458;2022-12-07T10:15:42;29.47;;;27.47;;
25111;SDS011;13092;51.996;4.458;2022-12-07T10:18:17;28.20;;;26.40;;
25111;SDS011;13092;51.996;4.458;2022-12-07T10:20:48;28.73;;;26.83;;
25111;SDS011;13092;51.996;4.458;2022-12-07T10:23:17;28.60;;;26.73;;
25111;SDS011;13092;51.996;4.458;2022-12-07T10:25:45;28.13;;;26.23;;
25111;SDS011;13092;51.996;4.458;2022-12-07T10:28:16;28.60;;;26.70;;
25111;SDS011;13092;51.996;4.458;2022-12-07T10:30:54;29.03;;;27.07;;
25111;SDS011;13092;51.996;4.458;2022-12-07T10:33:33;28.93;;;26.80;;
25111;SDS011;13092;51.996;4.458;2022-12-07T10:36:18;26.50;;;24.67;;
25111;SDS011;13092;51.996;4.458;2022-12-07T10:38:49;24.97;;;23.17;;
25111;SDS011;13092;51.996;4.458;2022-12-07T10:41:20;26.27;;;24.37;;
25111;SDS011;13092;51.996;4.458;2022-12-07T10:43:49;25.30;;;23.50;;
25111;SDS011;13092;51.996;4.458;2022-12-07T10:49:37;23.50;;;21.90;;
25111;SDS011;13092;51.996;4.458;2022-12-07T10:52:19;23.90;;;21.87;;
25111;SDS011;13092;51.996;4.458;2022-12-07T10:55:00;25.10;;;23.17;;
25111;SDS011;13092;51.996;4.458;2022-12-07T10:57:42;25.77;;;23.97;;
25111;SDS011;13092;51.996;4.458;2022-12-07T11:00:21;15.03;;;13.83;;
25111;SDS011;13092;51.996;4.458;2022-12-07T11:03:02;13.37;;;12.30;;
25111;SDS011;13092;51.996;4.458;2022-12-07T11:05:48;14.03;;;12.57;;
25111;SDS011;13092;51.996;4.458;2022-12-07T11:08:30;17.20;;;15.57;;
25111;SDS011;13092;51.996;4.458;2022-12-07T11:11:12;12.90;;;11.90;;
25111;SDS011;13092;51.996;4.458;2022-12-07T11:13:44;15.37;;;14.17;;
25111;SDS011;13092;51.996;4.458;2022-12-07T11:16:24;12.23;;;11.23;;
25111;SDS011;13092;51.996;4.458;2022-12-07T11:19:16;10.40;;;9.60;;
25111;SDS011;13092;51.996;4.458;2022-12-07T11:22:03;7.83;;;7.30;;
25111;SDS011;13092;51.996;4.458;2022-12-07T11:24:40;8.43;;;7.65;;
25111;SDS011;13092;51.996;4.458;2022-12-07T11:27:18;13.67;;;8.97;;
25111;SDS011;13092;51.996;4.458;2022-12-07T11:29:53;11.20;;;9.30;;
25111;SDS011;13092;51.996;4.458;2022-12-07T11:32:40;9.07;;;8.30;;
25111;SDS011;13092;51.996;4.458;2022-12-07T11:35:21;10.50;;;9.50;;
25111;SDS011;13092;51.996;4.458;2022-12-07T11:38:00;12.48;;;11.52;;
25111;SDS011;13092;51.996;4.458;2022-12-07T11:40:36;15.45;;;14.38;;
25111;SDS011;13092;51.996;4.458;2022-12-07T11:43:11;17.27;;;15.70;;
25111;SDS011;13092;51.996;4.458;2022-12-07T11:45:47;18.77;;;17.47;;
25111;SDS011;13092;51.996;4.458;2022-12-07T11:48:22;21.27;;;19.73;;
25111;SDS011;13092;51.996;4.458;2022-12-07T11:50:59;21.33;;;19.47;;
25111;SDS011;13092;51.996;4.458;2022-12-07T11:53:33;18.57;;;17.47;;
25111;SDS011;13092;51.996;4.458;2022-12-07T11:56:08;19.70;;;18.30;;
25111;SDS011;13092;51.996;4.458;2022-12-07T11:58:45;20.17;;;18.97;;
25111;SDS011;13092;51.996;4.458;2022-12-07T12:01:24;22.10;;;20.70;;
25111;SDS011;13092;51.996;4.458;2022-12-07T12:04:03;23.67;;;22.17;;
25111;SDS011;13092;51.996;4.458;2022-12-07T12:06:42;20.47;;;19.07;;
25111;SDS011;13092;51.996;4.458;2022-12-07T12:09:15;23.70;;;22.20;;
25111;SDS011;13092;51.996;4.458;2022-12-07T12:12:12;25.67;;;23.40;;
25111;SDS011;13092;51.996;4.458;2022-12-07T12:15:35;25.93;;;23.93;;
25111;SDS011;13092;51.996;4.458;2022-12-07T12:22:04;22.10;;;20.67;;
25111;SDS011;13092;51.996;4.458;2022-12-07T12:32:19;22.87;;;21.37;;
25111;SDS011;13092;51.996;4.458;2022-12-07T12:37:53;20.27;;;18.93;;
25111;SDS011;13092;51.996;4.458;2022-12-07T12:40:39;22.83;;;21.10;;
25111;SDS011;13092;51.996;4.458;2022-12-07T12:55:19;18.43;;;17.03;;
25111;SDS011;13092;51.996;4.458;2022-12-07T13:04:16;16.95;;;15.65;;
25111;SDS011;13092;51.996;4.458;2022-12-07T13:07:07;15.40;;;14.27;;
25111;SDS011;13092;51.996;4.458;2022-12-07T13:09:42;11.43;;;10.63;;
25111;SDS011;13092;51.996;4.458;2022-12-07T13:12:12;8.98;;;7.95;;
25111;SDS011;13092;51.996;4.458;2022-12-07T13:14:51;7.67;;;6.83;;
25111;SDS011;13092;51.996;4.458;2022-12-07T13:20:42;12.57;;;11.77;;
25111;SDS011;13092;51.996;4.458;2022-12-07T13:23:20;13.87;;;12.60;;
25111;SDS011;13092;51.996;4.458;2022-12-07T13:25:54;15.43;;;14.33;;
25111;SDS011;13092;51.996;4.458;2022-12-07T13:28:44;13.48;;;12.57;;
25111;SDS011;13092;51.996;4.458;2022-12-07T13:31:14;15.30;;;14.30;;
25111;SDS011;13092;51.996;4.458;2022-12-07T13:33:50;15.47;;;14.37;;
25111;SDS011;13092;51.996;4.458;2022-12-07T13:36:20;16.57;;;15.33;;
25111;SDS011;13092;51.996;4.458;2022-12-07T13:38:54;18.37;;;17.17;;
25111;SDS011;13092;51.996;4.458;2022-12-07T13:41:25;18.27;;;17.07;;
25111;SDS011;13092;51.996;4.458;2022-12-07T13:43:58;19.87;;;18.47;;
25111;SDS011;13092;51.996;4.458;2022-12-07T13:49:16;18.13;;;16.97;;
25111;SDS011;13092;51.996;4.458;2022-12-07T13:51:47;17.53;;;16.43;;
25111;SDS011;13092;51.996;4.458;2022-12-07T13:54:17;18.10;;;16.67;;
25111;SDS011;13092;51.996;4.458;2022-12-07T13:56:47;19.80;;;18.40;;
25111;SDS011;13092;51.996;4.458;2022-12-07T13:59:19;20.20;;;18.70;;
25111;SDS011;13092;51.996;4.458;2022-12-07T14:01:49;19.07;;;17.77;;
25111;SDS011;13092;51.996;4.458;2022-12-07T14:04:30;16.73;;;15.63;;
25111;SDS011;13092;51.996;4.458;2022-12-07T14:07:00;15.90;;;14.60;;
25111;SDS011;13092;51.996;4.458;2022-12-07T14:09:52;15.37;;;14.27;;
25111;SDS011;13092;51.996;4.458;2022-12-07T14:12:22;15.00;;;13.60;;
25111;SDS011;13092;51.996;4.458;2022-12-07T14:14:51;16.37;;;15.27;;
25111;SDS011;13092;51.996;4.458;2022-12-07T14:17:21;18.47;;;17.20;;
25111;SDS011;13092;51.996;4.458;2022-12-07T14:19:52;16.03;;;14.93;;
25111;SDS011;13092;51.996;4.458;2022-12-07T14:22:27;18.67;;;17.27;;
25111;SDS011;13092;51.996;4.458;2022-12-07T14:27:52;21.80;;;20.17;;
25111;SDS011;13092;51.996;4.458;2022-12-07T14:30:25;20.52;;;19.13;;
25111;SDS011;13092;51.996;4.458;2022-12-07T14:32:55;22.73;;;21.23;;
25111;SDS011;13092;51.996;4.458;2022-12-07T14:35:26;23.85;;;22.35;;
25111;SDS011;13092;51.996;4.458;2022-12-07T14:37:55;23.93;;;22.23;;
25111;SDS011;13092;51.996;4.458;2022-12-07T14:40:26;24.42;;;22.83;;
25111;SDS011;13092;51.996;4.458;2022-12-07T14:42:57;25.13;;;23.37;;
25111;SDS011;13092;51.996;4.458;2022-12-07T14:45:28;25.33;;;23.60;;
25111;SDS011;13092;51.996;4.458;2022-12-07T14:47:56;27.17;;;25.27;;
25111;SDS011;13092;51.996;4.458;2022-12-07T14:50:46;27.55;;;25.85;;
25111;SDS011;13092;51.996;4.458;2022-12-07T14:53:39;28.80;;;26.87;;
25111;SDS011;13092;51.996;4.458;2022-12-07T14:56:16;29.60;;;27.58;;
25111;SDS011;13092;51.996;4.458;2022-12-07T14:58:45;30.35;;;28.40;;
25111;SDS011;13092;51.996;4.458;2022-12-07T15:01:14;29.80;;;28.00;;
25111;SDS011;13092;51.996;4.458;2022-12-07T15:03:43;32.33;;;30.33;;
25111;SDS011;13092;51.996;4.458;2022-12-07T15:06:13;33.00;;;30.90;;
25111;SDS011;13092;51.996;4.458;2022-12-07T15:08:43;32.90;;;30.70;;
25111;SDS011;13092;51.996;4.458;2022-12-07T15:11:11;33.60;;;31.40;;
25111;SDS011;13092;51.996;4.458;2022-12-07T15:13:41;34.47;;;32.20;;
25111;SDS011;13092;51.996;4.458;2022-12-07T15:16:27;33.73;;;31.10;;
25111;SDS011;13092;51.996;4.458;2022-12-07T15:19:16;34.00;;;31.80;;
25111;SDS011;13092;51.996;4.458;2022-12-07T15:21:54;34.60;;;32.37;;
25111;SDS011;13092;51.996;4.458;2022-12-07T15:24:24;34.83;;;32.63;;
25111;SDS011;13092;51.996;4.458;2022-12-07T15:26:53;33.60;;;31.40;;
25111;SDS011;13092;51.996;4.458;2022-12-07T15:29:22;33.73;;;31.53;;
25111;SDS011;13092;51.996;4.458;2022-12-07T15:31:51;34.00;;;31.70;;
25111;SDS011;13092;51.996;4.458;2022-12-07T15:34:22;34.57;;;32.37;;
25111;SDS011;13092;51.996;4.458;2022-12-07T15:36:51;33.70;;;31.30;;
25111;SDS011;13092;51.996;4.458;2022-12-07T15:39:19;33.50;;;31.20;;
25111;SDS011;13092;51.996;4.458;2022-12-07T15:41:47;33.87;;;31.57;;
25111;SDS011;13092;51.996;4.458;2022-12-07T15:44:16;34.33;;;32.13;;